Time,TemperatureF,DewpointF,PressureIn,WindDirection,WindDirectionDegrees,WindSpeedMPH,WindSpeedGustMPH,Humidity,HourlyPrecipIn,Conditions,Clouds,dailyrainin,SolarRadiationWatts/m^2,SoftwareType,DateUTC
2013-05-12 00:00:00,57.4,41.4,30.09,NNE,17,5.0,8.0,55,0.00,RA,,0.00,0.0,WeatherDisplay:10.37,2013-05-12 05:00:00,
2013-05-12 00:10:00,57.3,41.2,30.09,North,10,5.0,9.0,55,0.00,CLR,,0.00,0.0,WeatherDisplay:10.37,2013-05-12 05:10:00,
2013-05-12 00:20:00,56.9,41.4,30.10,North,11,3.0,12.0,56,0.00,CLR,,0.00,0.0,WeatherDisplay:10.37,2013-05-12 05:20:00,
2013-05-12 00:30:00,56.5,41.0,30.10,NNE,17,3.0,6.0,56,0.00,CLR,,0.00,0.0,WeatherDisplay:10.37,2013-05-12 05:30:00,
2013-05-12 00:40:00,56.1,41.1,30.10,NNE,13,5.0,8.0,57,0.00,CLR,,0.00,0.0,WeatherDisplay:10.37,2013-05-12 05:40:00,
2013-05-12 00:50:00,55.7,41.2,30.10,NNE,18,2.0,8.0,58,0.00,CLR,,0.00,0.0,WeatherDisplay:10.37,2013-05-12 05:50:00,
2013-05-12 01:00:00,55.2,41.1,30.11,NNE,20,3.0,6.0,59,0.00,CLR,,0.00,0.0,WeatherDisplay:10.37,2013-05-12 06:00:00,
2013-05-12 01:10:00,54.8,41.2,30.11,NNE,16,2.0,4.0,60,0.00,CLR,,0.00,0.0,WeatherDisplay:10.37,2013-05-12 06:10:00,
2013-05-12 01:20:00,54.5,40.9,30.11,NNE,20,3.0,7.0,60,0.00,CLR,,0.00,0.0,WeatherDisplay:10.37,2013-05-12 06:20:00,
2013-05-12 01:30:00,54.7,39.3,30.11,North,11,7.0,13.0,56,0.00,CLR,,0.00,0.0,WeatherDisplay:10.37,2013-05-12 06:30:00,
2013-05-12 01:40:00,55.0,38.1,30.11,NNE,27,7.0,13.0,53,0.00,CLR,,0.00,0.0,WeatherDisplay:10.37,2013-05-12 06:40:00,
2013-05-12 01:50:00,54.7,38.3,30.11,NNE,15,3.0,13.0,54,0.00,CLR,,0.00,0.0,WeatherDisplay:10.37,2013-05-12 06:50:00,
2013-05-12 02:00:00,54.3,38.4,30.12,NNE,19,6.0,8.0,55,0.00,CLR,,0.00,0.0,WeatherDisplay:10.37,2013-05-12 07:00:00,
2013-05-12 02:10:00,53.8,38.4,30.12,NNE,17,6.0,9.0,56,0.00,CLR,,0.00,0.0,WeatherDisplay:10.37,2013-05-12 07:10:00,
2013-05-12 02:20:00,53.3,38.9,30.11,NNE,19,3.0,8.0,58,0.00,CLR,,0.00,0.0,WeatherDisplay:10.37,2013-05-12 07:20:00,
2013-05-12 02:30:00,52.9,38.9,30.11,North,8,2.0,6.0,59,0.00,CLR,,0.00,0.0,WeatherDisplay:10.37,2013-05-12 07:30:00,
2013-05-12 02:40:00,52.2,39.2,30.11,NNE,12,1.0,3.0,61,0.00,CLR,,0.00,0.0,WeatherDisplay:10.37,2013-05-12 07:40:00,
2013-05-12 02:50:00,51.8,39.6,30.11,North,0,1.0,3.0,63,0.00,CLR,,0.00,0.0,WeatherDisplay:10.37,2013-05-12 07:50:00,
2013-05-12 03:00:00,51.5,39.3,30.11,North,6,2.0,5.0,63,0.00,CLR,,0.00,0.0,WeatherDisplay:10.37,2013-05-12 08:00:00,
2013-05-12 03:10:00,51.3,39.1,30.12,North,8,2.0,4.0,63,0.00,CLR,,0.00,0.0,WeatherDisplay:10.37,2013-05-12 08:10:00,
2013-05-12 03:20:00,51.1,39.0,30.12,North,7,1.0,4.0,63,0.00,CLR,,0.00,0.0,WeatherDisplay:10.37,2013-05-12 08:20:00,
2013-05-12 03:30:00,50.8,39.1,30.12,North,357,1.0,3.0,64,0.00,CLR,,0.00,0.0,WeatherDisplay:10.37,2013-05-12 08:30:00,
2013-05-12 03:40:00,50.7,38.9,30.12,NNW,344,1.0,3.0,64,0.00,CLR,,0.00,0.0,WeatherDisplay:10.37,2013-05-12 08:40:00,
2013-05-12 03:50:00,50.4,39.1,30.12,North,354,0.0,2.0,65,0.00,CLR,,0.00,0.0,WeatherDisplay:10.37,2013-05-12 08:50:00,
2013-05-12 04:00:00,49.9,39.0,30.12,North,357,0.0,2.0,66,0.00,CLR,,0.00,0.0,WeatherDisplay:10.37,2013-05-12 09:00:00,
2013-05-12 04:10:00,49.6,38.7,30.12,North,5,1.0,2.0,66,0.00,CLR,,0.00,0.0,WeatherDisplay:10.37,2013-05-12 09:10:00,
2013-05-12 04:20:00,49.5,38.6,30.12,North,359,1.0,2.0,66,0.00,CLR,,0.00,0.0,WeatherDisplay:10.37,2013-05-12 09:20:00,
2013-05-12 04:30:00,49.5,38.6,30.13,NNE,15,0.0,3.0,66,0.00,CLR,,0.00,0.0,WeatherDisplay:10.37,2013-05-12 09:30:00,
2013-05-12 04:40:00,49.5,38.6,30.13,North,5,0.0,1.0,66,0.00,CLR,,0.00,0.0,WeatherDisplay:10.37,2013-05-12 09:40:00,
2013-05-12 04:50:00,48.8,39.0,30.13,NNW,338,0.0,1.0,69,0.00,CLR,,0.00,0.0,WeatherDisplay:10.37,2013-05-12 09:50:00,
2013-05-12 05:00:00,47.3,39.1,30.14,NNW,338,0.0,1.0,73,0.00,CLR,,0.00,0.0,WeatherDisplay:10.37,2013-05-12 10:00:00,
2013-05-12 05:10:00,46.1,38.9,30.14,NNW,338,0.0,0.0,76,0.00,CLR,,0.00,0.0,WeatherDisplay:10.37,2013-05-12 10:10:00,
2013-05-12 05:20:00,45.6,39.5,30.14,NNW,338,0.0,0.0,79,0.00,CLR,,0.00,0.0,WeatherDisplay:10.37,2013-05-12 10:20:00,
2013-05-12 05:30:00,45.5,39.4,30.15,NNW,331,0.0,1.0,79,0.00,CLR,,0.00,0.0,WeatherDisplay:10.37,2013-05-12 10:30:00,
2013-05-12 05:40:00,45.5,39.7,30.15,West,270,0.0,1.0,80,0.00,CLR,,0.00,0.0,WeatherDisplay:10.37,2013-05-12 10:40:00,
2013-05-12 05:50:00,45.5,39.4,30.15,West,271,0.0,0.0,79,0.00,CLR,,0.00,0.0,WeatherDisplay:10.37,2013-05-12 10:50:00,
2013-05-12 06:00:00,45.2,39.7,30.15,West,267,1.0,1.0,81,0.00,CLR,,0.00,0.0,WeatherDisplay:10.37,2013-05-12 11:00:00,
2013-05-12 06:10:00,44.9,39.7,30.15,WSW,249,0.0,1.0,82,0.00,CLR,,0.00,0.0,WeatherDisplay:10.37,2013-05-12 11:10:00,
2013-05-12 06:20:00,44.8,39.6,30.16,WSW,249,0.0,0.0,82,0.00,CLR,,0.00,0.0,WeatherDisplay:10.37,2013-05-12 11:20:00,
2013-05-12 06:30:00,45.7,40.2,30.16,NW,305,0.0,1.0,81,0.00,CLR,,0.00,0.0,WeatherDisplay:10.37,2013-05-12 11:30:00,
2013-05-12 07:10:00,50.1,40.3,30.16,NNW,334,2.0,6.0,69,0.00,CLR,,0.00,0.0,WeatherDisplay:10.37,2013-05-12 12:10:00,
2013-05-12 07:20:00,51.4,41.2,30.17,NW,320,1.0,3.0,68,0.00,CLR,,0.00,0.0,WeatherDisplay:10.37,2013-05-12 12:20:00,
2013-05-12 07:30:00,52.4,39.8,30.17,NW,309,2.0,5.0,62,0.00,CLR,,0.00,0.0,WeatherDisplay:10.37,2013-05-12 12:30:00,
2013-05-12 07:40:00,53.4,40.7,30.18,NW,308,2.0,5.0,62,0.00,CLR,,0.00,0.0,WeatherDisplay:10.37,2013-05-12 12:40:00,
2013-05-12 07:50:00,54.1,39.6,30.18,WNW,303,2.0,5.0,58,0.00,CLR,,0.00,0.0,WeatherDisplay:10.37,2013-05-12 12:50:00,
2013-05-12 08:00:00,54.4,38.6,30.17,NNW,336,5.0,8.0,55,0.00,CLR,,0.00,0.0,WeatherDisplay:10.37,2013-05-12 13:00:00,
2013-05-12 08:10:00,54.5,37.7,30.17,NW,322,3.0,10.0,53,0.00,CLR,,0.00,0.0,WeatherDisplay:10.37,2013-05-12 13:10:00,
2013-05-12 08:20:00,54.7,36.9,30.18,NNW,330,6.0,12.0,51,0.00,CLR,,0.00,0.0,WeatherDisplay:10.37,2013-05-12 13:20:00,
2013-05-12 08:30:00,54.6,37.3,30.18,NNW,331,6.0,12.0,52,0.00,CLR,,0.00,0.0,WeatherDisplay:10.37,2013-05-12 13:30:00,
2013-05-12 08:40:00,55.2,35.8,30.19,NNW,341,6.0,12.0,48,0.00,CLR,,0.00,0.0,WeatherDisplay:10.37,2013-05-12 13:40:00,
2013-05-12 08:50:00,55.5,33.9,30.19,NNW,335,7.0,14.0,44,0.00,CLR,,0.00,0.0,WeatherDisplay:10.37,2013-05-12 13:50:00,
2013-05-12 09:00:00,55.8,35.3,30.20,NNW,344,7.0,12.0,46,0.00,CLR,,0.00,0.0,WeatherDisplay:10.37,2013-05-12 14:00:00,
2013-05-12 09:10:00,56.3,34.1,30.20,NNE,12,6.0,12.0,43,0.00,CLR,,0.00,0.0,WeatherDisplay:10.37,2013-05-12 14:10:00,
2013-05-12 09:20:00,56.5,32.4,30.20,NNW,340,6.0,12.0,40,0.00,CLR,,0.00,0.0,WeatherDisplay:10.37,2013-05-12 14:20:00,
2013-05-12 09:30:00,56.9,32.8,30.20,NNW,342,5.0,10.0,40,0.00,CLR,,0.00,0.0,WeatherDisplay:10.37,2013-05-12 14:30:00,
2013-05-12 09:40:00,57.1,29.7,30.20,NNW,342,7.0,13.0,35,0.00,CLR,,0.00,0.0,WeatherDisplay:10.37,2013-05-12 14:40:00,
2013-05-12 09:50:00,57.4,29.9,30.20,NNW,335,9.0,15.0,35,0.00,CLR,,0.00,0.0,WeatherDisplay:10.37,2013-05-12 14:50:00,
2013-05-12 10:00:00,57.4,29.2,30.20,NNW,336,7.0,14.0,34,0.00,CLR,,0.00,0.0,WeatherDisplay:10.37,2013-05-12 15:00:00,
2013-05-12 10:10:00,57.8,30.3,30.20,North,351,6.0,14.0,35,0.00,CLR,,0.00,0.0,WeatherDisplay:10.37,2013-05-12 15:10:00,
2013-05-12 10:20:00,57.6,29.4,30.20,North,356,6.0,13.0,34,0.00,CLR,,0.00,0.0,WeatherDisplay:10.37,2013-05-12 15:20:00,
2013-05-12 10:30:00,58.2,27.7,30.20,NW,312,6.0,16.0,31,0.00,CLR,,0.00,0.0,WeatherDisplay:10.37,2013-05-12 15:30:00,
2013-05-12 10:40:00,58.5,26.3,30.20,NW,311,3.0,16.0,29,0.00,CLR,,0.00,0.0,WeatherDisplay:10.37,2013-05-12 15:40:00,
2013-05-12 11:00:00,58.5,29.5,30.20,NW,326,6.0,13.0,33,0.00,CLR,,0.00,0.0,WeatherDisplay:10.37,2013-05-12 16:00:00,
2013-05-12 11:30:00,58.8,28.2,30.19,NNW,340,9.0,15.0,31,0.00,CLR,,0.00,0.0,WeatherDisplay:10.37,2013-05-12 16:30:00,
2013-05-12 11:40:00,59.3,28.6,30.19,NNW,333,7.0,14.0,31,0.00,CLR,,0.00,0.0,WeatherDisplay:10.37,2013-05-12 16:40:00,
2013-05-12 11:50:00,59.5,29.6,30.19,NW,326,7.0,12.0,32,0.00,CLR,,0.00,0.0,WeatherDisplay:10.37,2013-05-12 16:50:00,
2013-05-12 12:20:00,59.6,28.1,30.18,NNW,341,7.0,15.0,30,0.00,CLR,,0.00,0.0,WeatherDisplay:10.37,2013-05-12 17:20:00,
2013-05-12 12:30:00,60.7,29.0,30.18,NW,319,6.0,13.0,30,0.00,CLR,,0.00,0.0,WeatherDisplay:10.37,2013-05-12 17:30:00,
2013-05-12 12:40:00,61.0,29.3,30.18,NNW,334,7.0,13.0,30,0.00,CLR,,0.00,0.0,WeatherDisplay:10.37,2013-05-12 17:40:00,
2013-05-12 12:50:00,60.6,29.8,30.18,NNW,332,5.0,14.0,31,0.00,CLR,,0.00,0.0,WeatherDisplay:10.37,2013-05-12 17:50:00,
2013-05-12 13:00:00,61.1,29.4,30.18,NNW,343,6.0,12.0,30,0.00,CLR,,0.00,0.0,WeatherDisplay:10.37,2013-05-12 18:00:00,
2013-05-12 13:10:00,60.9,30.0,30.18,NNW,343,12.0,17.0,31,0.00,CLR,,0.00,0.0,WeatherDisplay:10.37,2013-05-12 18:10:00,
2013-05-12 13:20:00,61.2,30.3,30.18,NNW,328,8.0,14.0,31,0.00,CLR,,0.00,0.0,WeatherDisplay:10.37,2013-05-12 18:20:00,
2013-05-12 13:30:00,61.4,30.4,30.17,NNW,331,3.0,12.0,31,0.00,CLR,,0.00,0.0,WeatherDisplay:10.37,2013-05-12 18:30:00,
2013-05-12 13:40:00,62.5,31.4,30.17,NW,305,5.0,14.0,31,0.00,CLR,,0.00,0.0,WeatherDisplay:10.37,2013-05-12 18:40:00,
2013-05-12 13:50:00,62.2,31.2,30.17,NNW,339,10.0,14.0,31,0.00,CLR,,0.00,0.0,WeatherDisplay:10.37,2013-05-12 18:50:00,
2013-05-12 14:00:00,62.0,31.8,30.17,NW,320,3.0,17.0,32,0.00,CLR,,0.00,0.0,WeatherDisplay:10.37,2013-05-12 19:00:00,
2013-05-12 14:10:00,62.5,29.8,30.16,NNW,340,8.0,17.0,29,0.00,CLR,,0.00,0.0,WeatherDisplay:10.37,2013-05-12 19:10:00,
2013-05-12 14:20:00,62.6,30.7,30.16,NW,326,7.0,16.0,30,0.00,CLR,,0.00,0.0,WeatherDisplay:10.37,2013-05-12 19:20:00,
2013-05-12 14:30:00,62.9,31.0,30.15,North,359,5.0,12.0,30,0.00,CLR,,0.00,0.0,WeatherDisplay:10.37,2013-05-12 19:30:00,
2013-05-12 14:40:00,63.1,31.9,30.15,North,353,7.0,13.0,31,0.00,CLR,,0.00,0.0,WeatherDisplay:10.37,2013-05-12 19:40:00,
2013-05-12 14:50:00,62.9,31.8,30.15,North,9,9.0,14.0,31,0.00,CLR,,0.00,0.0,WeatherDisplay:10.37,2013-05-12 19:50:00,
2013-05-12 15:00:00,62.7,30.8,30.14,North,8,3.0,15.0,30,0.00,CLR,,0.00,0.0,WeatherDisplay:10.37,2013-05-12 20:00:00,
2013-05-12 15:10:00,63.6,31.6,30.14,NNW,345,6.0,15.0,30,0.00,CLR,,0.00,0.0,WeatherDisplay:10.37,2013-05-12 20:10:00,
2013-05-12 15:20:00,63.0,30.2,30.14,NW,325,8.0,16.0,29,0.00,CLR,,0.00,0.0,WeatherDisplay:10.37,2013-05-12 20:20:00,
2013-05-12 15:30:00,63.7,30.8,30.14,NW,310,3.0,13.0,29,0.00,CLR,,0.00,0.0,WeatherDisplay:10.37,2013-05-12 20:30:00,
2013-05-12 15:40:00,64.1,30.3,30.14,North,5,9.0,18.0,28,0.00,CLR,,0.00,0.0,WeatherDisplay:10.37,2013-05-12 20:40:00,
2013-05-12 15:50:00,63.5,30.6,30.14,NW,314,3.0,13.0,29,0.00,CLR,,0.00,0.0,WeatherDisplay:10.37,2013-05-12 20:50:00,
2013-05-12 16:00:00,63.7,29.9,30.14,NNW,328,5.0,12.0,28,0.00,CLR,,0.00,0.0,WeatherDisplay:10.37,2013-05-12 21:00:00,
2013-05-12 16:10:00,64.8,32.6,30.14,WNW,291,3.0,9.0,30,0.00,CLR,,0.00,0.0,WeatherDisplay:10.37,2013-05-12 21:10:00,
2013-05-12 16:20:00,64.1,32.0,30.14,NNW,344,5.0,10.0,30,0.00,CLR,,0.00,0.0,WeatherDisplay:10.37,2013-05-12 21:20:00,
2013-05-12 16:30:00,64.9,31.9,30.14,NNW,328,3.0,10.0,29,0.00,CLR,,0.00,0.0,WeatherDisplay:10.37,2013-05-12 21:30:00,
2013-05-12 16:40:00,64.0,31.9,30.14,NNW,347,6.0,12.0,30,0.00,CLR,,0.00,0.0,WeatherDisplay:10.37,2013-05-12 21:40:00,
2013-05-12 16:50:00,64.8,33.4,30.14,NW,306,2.0,13.0,31,0.00,CLR,,0.00,0.0,WeatherDisplay:10.37,2013-05-12 21:50:00,
2013-05-12 17:00:00,64.5,32.4,30.14,NW,316,2.0,6.0,30,0.00,CLR,,0.00,0.0,WeatherDisplay:10.37,2013-05-12 22:00:00,
2013-05-12 17:10:00,65.7,35.0,30.14,SW,217,1.0,6.0,32,0.00,CLR,,0.00,0.0,WeatherDisplay:10.37,2013-05-12 22:10:00,
2013-05-12 17:20:00,65.9,33.6,30.14,WNW,296,2.0,12.0,30,0.00,CLR,,0.00,0.0,WeatherDisplay:10.37,2013-05-12 22:20:00,
2013-05-12 17:30:00,66.1,33.7,30.14,WNW,294,3.0,7.0,30,0.00,CLR,,0.00,0.0,WeatherDisplay:10.37,2013-05-12 22:30:00,
2013-05-12 17:40:00,65.9,33.6,30.14,WSW,258,2.0,6.0,30,0.00,CLR,,0.00,0.0,WeatherDisplay:10.37,2013-05-12 22:40:00,
2013-05-12 17:50:00,65.9,30.9,30.13,WNW,300,3.0,8.0,27,0.00,CLR,,0.00,0.0,WeatherDisplay:10.37,2013-05-12 22:50:00,
2013-05-12 18:00:00,65.1,31.2,30.13,NNW,337,3.0,7.0,28,0.00,CLR,,0.00,0.0,WeatherDisplay:10.37,2013-05-12 23:00:00,
2013-05-12 18:10:00,64.8,31.8,30.13,NW,318,3.0,8.0,29,0.00,CLR,,0.00,0.0,WeatherDisplay:10.37,2013-05-12 23:10:00,
2013-05-12 18:20:00,65.6,32.5,30.13,West,276,2.0,8.0,29,0.00,CLR,,0.00,0.0,WeatherDisplay:10.37,2013-05-12 23:20:00,
2013-05-12 18:30:00,65.4,33.9,30.13,SW,232,2.0,5.0,31,0.00,CLR,,0.00,0.0,WeatherDisplay:10.37,2013-05-12 23:30:00,
2013-05-12 18:40:00,65.2,31.2,30.12,WNW,301,3.0,7.0,28,0.00,CLR,,0.00,0.0,WeatherDisplay:10.37,2013-05-12 23:40:00,
2013-05-12 18:50:00,64.9,32.7,30.12,NW,306,0.0,10.0,30,0.00,CLR,,0.00,0.0,WeatherDisplay:10.37,2013-05-12 23:50:00,
2013-05-12 19:00:00,65.2,32.1,30.12,West,272,1.0,5.0,29,0.00,CLR,,0.00,0.0,WeatherDisplay:10.37,2013-05-13 00:00:00,
2013-05-12 19:10:00,65.4,32.3,30.12,WNW,295,1.0,2.0,29,0.00,CLR,,0.00,0.0,WeatherDisplay:10.37,2013-05-13 00:10:00,
2013-05-12 19:20:00,64.6,31.6,30.12,WNW,303,2.0,5.0,29,0.00,CLR,,0.00,0.0,WeatherDisplay:10.37,2013-05-13 00:20:00,
2013-05-12 19:30:00,64.1,32.0,30.12,NW,307,1.0,4.0,30,0.00,CLR,,0.00,0.0,WeatherDisplay:10.37,2013-05-13 00:30:00,
2013-05-12 19:40:00,63.1,33.5,30.12,West,272,0.0,2.0,33,0.00,CLR,,0.00,0.0,WeatherDisplay:10.37,2013-05-13 00:40:00,
2013-05-12 19:50:00,61.4,34.2,30.12,West,270,0.0,1.0,36,0.00,CLR,,0.00,0.0,WeatherDisplay:10.37,2013-05-13 00:50:00,
2013-05-12 20:00:00,60.0,34.3,30.12,West,270,0.0,0.0,38,0.00,CLR,,0.00,0.0,WeatherDisplay:10.37,2013-05-13 01:00:00,
2013-05-12 20:10:00,58.7,35.6,30.12,West,270,0.0,0.0,42,0.00,CLR,,0.00,0.0,WeatherDisplay:10.37,2013-05-13 01:10:00,
2013-05-12 20:20:00,57.7,35.9,30.12,West,270,0.0,1.0,44,0.00,CLR,,0.00,0.0,WeatherDisplay:10.37,2013-05-13 01:20:00,
2013-05-12 20:30:00,57.3,35.0,30.12,West,270,0.0,1.0,43,0.00,CLR,,0.00,0.0,WeatherDisplay:10.37,2013-05-13 01:30:00,
2013-05-12 20:40:00,56.2,36.8,30.13,SE,139,0.0,1.0,48,0.00,CLR,,0.00,0.0,WeatherDisplay:10.37,2013-05-13 01:40:00,
2013-05-12 20:50:00,56.4,36.4,30.12,SE,139,0.0,1.0,47,0.00,CLR,,0.00,0.0,WeatherDisplay:10.37,2013-05-13 01:50:00,
2013-05-12 21:00:00,56.4,36.4,30.13,SE,139,0.0,1.0,47,0.00,CLR,,0.00,0.0,WeatherDisplay:10.37,2013-05-13 02:00:00,
2013-05-12 21:10:00,55.7,36.3,30.13,SE,136,0.0,1.0,48,0.00,CLR,,0.00,0.0,WeatherDisplay:10.37,2013-05-13 02:10:00,
2013-05-12 21:20:00,55.3,38.4,30.14,ESE,114,1.0,1.0,53,0.00,CLR,,0.00,0.0,WeatherDisplay:10.37,2013-05-13 02:20:00,
2013-05-12 21:30:00,54.7,37.9,30.14,East,92,0.0,1.0,53,0.00,CLR,,0.00,0.0,WeatherDisplay:10.37,2013-05-13 02:30:00,
2013-05-12 21:40:00,54.3,39.3,30.14,East,96,0.0,1.0,57,0.00,CLR,,0.00,0.0,WeatherDisplay:10.37,2013-05-13 02:40:00,
2013-05-12 21:50:00,53.5,38.7,30.14,East,96,0.0,1.0,57,0.00,CLR,,0.00,0.0,WeatherDisplay:10.37,2013-05-13 02:50:00,
2013-05-12 22:00:00,53.0,39.0,30.14,East,96,0.0,0.0,59,0.00,CLR,,0.00,0.0,WeatherDisplay:10.37,2013-05-13 03:00:00,
2013-05-12 22:10:00,51.6,42.5,30.15,SSW,196,0.0,2.0,71,0.00,CLR,,0.00,0.0,WeatherDisplay:10.37,2013-05-13 03:10:00,
2013-05-12 22:20:00,51.0,41.6,30.14,SSW,198,0.0,1.0,70,0.00,CLR,,0.00,0.0,WeatherDisplay:10.37,2013-05-13 03:20:00,
2013-05-12 22:30:00,51.4,41.5,30.14,SSW,198,0.0,0.0,69,0.00,CLR,,0.00,0.0,WeatherDisplay:10.37,2013-05-13 03:30:00,
2013-05-12 22:40:00,51.4,40.4,30.14,SSW,198,0.0,0.0,66,0.00,CLR,,0.00,0.0,WeatherDisplay:10.37,2013-05-13 03:40:00,
2013-05-12 22:50:00,51.3,40.7,30.14,SSW,198,0.0,0.0,67,0.00,CLR,,0.00,0.0,WeatherDisplay:10.37,2013-05-13 03:50:00,
2013-05-12 23:00:00,50.9,39.5,30.15,SSW,198,0.0,0.0,65,0.00,CLR,,0.00,0.0,WeatherDisplay:10.37,2013-05-13 04:00:00,
2013-05-12 23:10:00,50.8,41.0,30.14,ENE,72,1.0,2.0,69,0.00,CLR,,0.00,0.0,WeatherDisplay:10.37,2013-05-13 04:10:00,
2013-05-12 23:20:00,50.5,41.4,30.15,NE,52,1.0,2.0,71,0.00,CLR,,0.00,0.0,WeatherDisplay:10.37,2013-05-13 04:20:00,
2013-05-12 23:30:00,50.1,41.8,30.15,NE,51,1.0,2.0,73,0.00,CLR,,0.00,0.0,WeatherDisplay:10.37,2013-05-13 04:30:00,
2013-05-12 23:40:00,48.8,41.9,30.15,SW,217,1.0,2.0,77,0.00,CLR,,0.00,0.0,WeatherDisplay:10.37,2013-05-13 04:40:00,
2013-05-12 23:50:00,48.0,41.8,30.15,SW,217,0.0,1.0,79,0.00,CLR,,0.00,0.0,WeatherDisplay:10.37,2013-05-13 04:50:00,